createdAt,value
2018-09-03T00:02:12.675Z,14.37
2018-09-03T00:04:42.443Z,14.33
2018-09-03T00:07:13.172Z,14.17
2018-09-03T00:09:43.862Z,14.23
2018-09-03T00:12:14.313Z,14.03
2018-09-03T00:14:44.963Z,13.80
2018-09-03T00:17:16.529Z,14.50
2018-09-03T00:19:47.178Z,13.97
2018-09-03T00:22:17.690Z,14.70
2018-09-03T00:24:48.203Z,15.03
2018-09-03T00:27:18.835Z,15.20
2018-09-03T00:29:49.381Z,14.47
2018-09-03T00:32:24.773Z,15.07
2018-09-03T00:34:59.840Z,15.23
2018-09-03T00:37:35.232Z,14.57
2018-09-03T00:40:10.982Z,15.50
2018-09-03T00:42:46.497Z,15.33
2018-09-03T00:45:22.005Z,15.60
2018-09-03T00:47:52.389Z,15.20
2018-09-03T00:50:22.809Z,15.10
2018-09-03T00:52:53.253Z,15.27
2018-09-03T00:55:23.857Z,15.80
2018-09-03T00:57:54.388Z,16.23
2018-09-03T01:00:25.188Z,15.77
2018-09-03T01:02:55.871Z,16.50
2018-09-03T01:05:26.418Z,16.23
2018-09-03T01:07:56.944Z,16.37
2018-09-03T01:10:27.345Z,17.03
2018-09-03T01:12:57.961Z,16.80
2018-09-03T01:15:30.705Z,16.50
2018-09-03T01:18:02.399Z,16.60
2018-09-03T01:20:33.320Z,16.83
2018-09-03T01:23:03.941Z,16.20
2018-09-03T01:25:34.517Z,16.93
2018-09-03T01:28:05.021Z,17.07
2018-09-03T01:30:35.510Z,17.47
2018-09-03T01:33:06.478Z,17.77
2018-09-03T01:35:36.989Z,17.20
2018-09-03T01:38:07.654Z,17.00
2018-09-03T01:40:37.999Z,16.80
2018-09-03T01:43:08.526Z,17.53
2018-09-03T01:45:39.077Z,17.10
2018-09-03T01:48:09.654Z,17.00
2018-09-03T01:50:40.203Z,17.53
2018-09-03T01:53:10.692Z,17.43
2018-09-03T01:55:41.270Z,17.70
2018-09-03T01:58:11.881Z,17.10
2018-09-03T02:00:42.463Z,15.57
2018-09-03T02:03:12.309Z,16.90
2018-09-03T02:05:42.765Z,17.27
2018-09-03T02:08:13.269Z,16.10
2018-09-03T02:10:43.895Z,17.27
2018-09-03T02:13:14.453Z,16.47
2018-09-03T02:15:45.174Z,16.30
2018-09-03T02:18:15.735Z,16.57
2018-09-03T02:20:46.454Z,16.87
2018-09-03T02:23:17.063Z,16.97
2018-09-03T02:25:47.726Z,17.00
2018-09-03T02:28:18.320Z,16.93
2018-09-03T02:30:48.876Z,16.47
2018-09-03T02:33:19.394Z,16.60
2018-09-03T02:35:49.962Z,16.10
2018-09-03T02:38:20.446Z,16.07
2018-09-03T02:40:51.098Z,17.13
2018-09-03T02:43:21.603Z,15.90
2018-09-03T02:45:52.245Z,16.10
2018-09-03T02:48:22.887Z,16.43
2018-09-03T02:50:53.409Z,15.50
2018-09-03T02:53:23.803Z,14.83
2018-09-03T02:55:54.436Z,15.90
2018-09-03T02:58:25.069Z,16.40
2018-09-03T03:00:55.533Z,15.27
2018-09-03T03:03:26.058Z,15.57
2018-09-03T03:05:56.631Z,17.20
2018-09-03T03:08:27.206Z,14.60
2018-09-03T03:10:57.709Z,15.63
2018-09-03T03:13:28.329Z,15.60
2018-09-03T03:15:58.785Z,15.67
2018-09-03T03:18:29.438Z,16.60
2018-09-03T03:21:00.061Z,15.27
2018-09-03T03:23:31.172Z,16.40
2018-09-03T03:26:01.849Z,15.63
2018-09-03T03:28:32.311Z,14.90
2018-09-03T03:31:02.965Z,14.37
2018-09-03T03:33:33.401Z,15.20
2018-09-03T03:36:04.070Z,15.80
2018-09-03T03:38:34.670Z,15.30
2018-09-03T03:41:05.108Z,15.67
2018-09-03T03:43:35.656Z,15.37
2018-09-03T03:46:06.246Z,15.60
2018-09-03T03:48:36.846Z,16.20
2018-09-03T03:51:07.402Z,17.17
2018-09-03T03:53:37.965Z,22.27
2018-09-03T03:56:08.660Z,20.77
2018-09-03T03:58:39.120Z,19.07
2018-09-03T04:01:09.644Z,22.00
2018-09-03T04:03:40.182Z,20.00
2018-09-03T04:06:10.877Z,19.30
2018-09-03T04:08:41.392Z,18.40
2018-09-03T04:11:12.324Z,17.00
2018-09-03T04:13:42.893Z,21.10
2018-09-03T04:16:13.434Z,17.93
2018-09-03T04:18:43.949Z,17.40
2018-09-03T04:21:14.389Z,16.10
2018-09-03T04:23:44.874Z,17.90
2018-09-03T04:26:15.458Z,19.00
2018-09-03T04:28:46.063Z,17.47
2018-09-03T04:31:16.537Z,15.57
2018-09-03T04:33:47.018Z,16.07
2018-09-03T04:36:17.604Z,15.73
2018-09-03T04:38:48.165Z,16.03
2018-09-03T04:41:18.715Z,16.40
2018-09-03T04:43:49.221Z,16.57
2018-09-03T04:46:19.761Z,16.13
2018-09-03T04:48:50.289Z,15.00
2018-09-03T04:51:20.842Z,15.87
2018-09-03T04:53:51.475Z,14.60
2018-09-03T04:56:21.885Z,16.03
2018-09-03T04:58:52.309Z,15.83
2018-09-03T05:01:22.960Z,14.70
2018-09-03T05:03:53.593Z,14.67
2018-09-03T05:06:24.119Z,16.53
2018-09-03T05:08:54.761Z,20.97
2018-09-03T05:11:25.292Z,20.77
2018-09-03T05:13:56.022Z,18.63
2018-09-03T05:16:26.629Z,16.13
2018-09-03T05:18:57.150Z,14.77
2018-09-03T05:21:27.792Z,13.67
2018-09-03T05:23:58.301Z,13.37
2018-09-03T05:26:29.025Z,13.20
2018-09-03T05:28:59.613Z,13.17
2018-09-03T05:31:29.444Z,14.00
2018-09-03T05:34:00.006Z,13.50
2018-09-03T05:36:30.569Z,13.77
2018-09-03T05:39:00.961Z,13.53
2018-09-03T05:41:31.497Z,14.13
2018-09-03T05:44:02.054Z,14.07
2018-09-03T05:46:32.657Z,14.30
2018-09-03T05:49:03.177Z,13.17
2018-09-03T05:51:33.739Z,12.87
2018-09-03T05:54:04.314Z,13.10
2018-09-03T05:56:34.751Z,14.20
2018-09-03T05:59:05.631Z,13.40
2018-09-03T06:01:36.120Z,14.03
2018-09-03T06:04:06.853Z,13.73
2018-09-03T06:06:37.522Z,12.70
2018-09-03T06:09:10.252Z,14.27
2018-09-03T06:11:41.215Z,13.40
2018-09-03T06:14:12.098Z,14.17
2018-09-03T06:16:41.926Z,14.40
2018-09-03T06:19:12.306Z,13.80
2018-09-03T06:21:42.772Z,14.33
2018-09-03T06:24:12.518Z,13.83
2018-09-03T06:26:43.300Z,13.70
2018-09-03T06:29:13.689Z,13.50
2018-09-03T06:31:44.225Z,13.53
2018-09-03T06:34:14.737Z,12.47
2018-09-03T06:36:45.388Z,13.00
2018-09-03T06:39:15.916Z,13.90
2018-09-03T06:41:46.566Z,13.83
2018-09-03T06:44:17.061Z,13.90
2018-09-03T06:46:47.630Z,14.07
2018-09-03T06:49:18.203Z,13.23
2018-09-03T06:51:48.757Z,13.87
2018-09-03T06:54:19.865Z,14.07
2018-09-03T06:56:50.429Z,14.23
2018-09-03T06:59:20.926Z,12.80
2018-09-03T07:01:51.530Z,12.87
2018-09-03T07:04:22.038Z,12.60
2018-09-03T07:06:52.709Z,11.90
2018-09-03T07:09:22.442Z,13.67
2018-09-03T07:11:52.699Z,13.17
2018-09-03T07:14:23.153Z,12.93
2018-09-03T07:16:53.841Z,12.53
2018-09-03T07:19:24.402Z,13.03
2018-09-03T07:21:54.793Z,13.77
2018-09-03T07:24:25.320Z,13.10
2018-09-03T07:26:55.950Z,13.10
2018-09-03T07:29:26.645Z,13.27
2018-09-03T07:31:57.121Z,12.90
2018-09-03T07:34:27.735Z,12.07
2018-09-03T07:36:58.301Z,12.47
2018-09-03T07:39:28.813Z,12.10
2018-09-03T07:41:59.381Z,12.50
2018-09-03T07:44:29.829Z,12.70
2018-09-03T07:47:00.349Z,11.80
2018-09-03T07:49:31.298Z,12.03
2018-09-03T07:52:01.706Z,12.47
2018-09-03T07:54:31.974Z,11.93
2018-09-03T07:57:02.582Z,12.83
2018-09-03T07:59:33.151Z,11.70
2018-09-03T08:02:03.799Z,11.57
2018-09-03T08:04:34.408Z,11.97
2018-09-03T08:07:04.961Z,11.63
2018-09-03T08:09:35.445Z,11.80
2018-09-03T08:12:05.777Z,11.17
2018-09-03T08:14:36.106Z,11.10
2018-09-03T08:17:06.782Z,11.03
2018-09-03T08:19:37.290Z,12.40
2018-09-03T08:22:08.049Z,11.90
2018-09-03T08:24:38.824Z,11.70
2018-09-03T08:27:09.422Z,12.37
2018-09-03T08:29:40.001Z,11.67
2018-09-03T08:32:10.493Z,11.43
2018-09-03T08:34:40.228Z,12.77
2018-09-03T08:37:10.593Z,11.83
2018-09-03T08:39:41.080Z,11.63
2018-09-03T08:42:11.583Z,11.50
2018-09-03T08:44:41.551Z,11.07
2018-09-03T08:47:12.122Z,11.67
2018-09-03T08:49:42.590Z,11.80
2018-09-03T08:52:13.091Z,12.43
2018-09-03T08:54:43.421Z,11.73
2018-09-03T08:57:13.886Z,11.77
2018-09-03T08:59:44.399Z,11.67
2018-09-03T09:02:14.974Z,11.07
2018-09-03T09:04:45.445Z,10.93
2018-09-03T09:07:15.971Z,10.57
2018-09-03T09:09:46.540Z,11.53
2018-09-03T09:12:17.111Z,10.77
2018-09-03T09:14:47.563Z,10.90
2018-09-03T09:17:18.148Z,9.80
2018-09-03T09:19:48.650Z,10.97
2018-09-03T09:22:19.165Z,10.63
2018-09-03T09:24:49.573Z,10.47
2018-09-03T09:27:20.133Z,10.40
2018-09-03T09:29:50.625Z,10.70
2018-09-03T09:32:20.986Z,10.83
2018-09-03T09:34:51.389Z,10.70
2018-09-03T09:37:21.841Z,11.40
2018-09-03T09:39:52.452Z,10.97
2018-09-03T09:42:22.942Z,11.60
2018-09-03T09:44:53.354Z,10.23
2018-09-03T09:47:23.982Z,10.60
2018-09-03T09:49:54.503Z,10.57
2018-09-03T09:52:25.029Z,10.30
2018-09-03T09:54:55.636Z,11.87
2018-09-03T09:57:26.326Z,10.57
2018-09-03T09:59:56.157Z,9.83
2018-09-03T10:02:26.510Z,10.40
2018-09-03T10:04:57.062Z,9.73
2018-09-03T10:07:27.614Z,9.90
2018-09-03T10:09:58.085Z,9.70
2018-09-03T10:12:31.530Z,9.97
2018-09-03T10:15:02.933Z,9.73
2018-09-03T10:17:33.390Z,10.03
2018-09-03T10:20:04.009Z,10.50
2018-09-03T10:22:34.538Z,11.10
2018-09-03T10:25:05.048Z,10.20
2018-09-03T10:27:35.589Z,10.23
2018-09-03T10:30:06.085Z,10.40
2018-09-03T10:32:36.677Z,11.60
2018-09-03T10:35:07.229Z,11.03
2018-09-03T10:37:36.957Z,10.30
2018-09-03T10:40:07.618Z,10.80
2018-09-03T10:42:38.170Z,10.90
2018-09-03T10:45:08.847Z,10.70
2018-09-03T10:47:39.389Z,10.70
2018-09-03T10:50:09.865Z,10.80
2018-09-03T10:52:40.365Z,10.53
2018-09-03T10:55:10.865Z,10.73
2018-09-03T10:57:42.301Z,10.30
2018-09-03T11:00:12.960Z,10.37
2018-09-03T11:02:43.522Z,9.50
2018-09-03T11:05:14.152Z,10.70
2018-09-03T11:07:44.670Z,10.67
2018-09-03T11:10:15.076Z,9.90
2018-09-03T11:12:45.603Z,9.17
2018-09-03T11:15:16.139Z,9.40
2018-09-03T11:17:47.087Z,10.47
2018-09-03T11:20:24.429Z,10.63
2018-09-03T11:22:55.181Z,9.67
2018-09-03T11:25:26.836Z,9.37
2018-09-03T11:27:57.573Z,10.03
2018-09-03T11:30:28.413Z,10.30
2018-09-03T11:33:03.002Z,10.00
2018-09-03T11:35:32.709Z,9.77
2018-09-03T11:38:03.181Z,9.83
2018-09-03T11:40:33.911Z,9.53
2018-09-03T11:43:04.478Z,9.47
2018-09-03T11:45:35.094Z,9.57
2018-09-03T11:48:05.734Z,9.27
2018-09-03T11:50:36.345Z,9.67
2018-09-03T11:53:06.906Z,10.20
2018-09-03T11:55:38.490Z,10.10
2018-09-03T11:58:09.226Z,8.87
2018-09-03T12:00:39.923Z,9.53
2018-09-03T12:03:10.478Z,9.37
2018-09-03T12:05:41.783Z,9.23
2018-09-03T12:08:12.302Z,9.07
2018-09-03T12:10:42.910Z,8.83
2018-09-03T12:13:13.585Z,9.37
2018-09-03T12:15:49.400Z,9.43
2018-09-03T12:18:20.085Z,9.25
2018-09-03T12:20:50.340Z,9.58
2018-09-03T12:23:20.786Z,9.50
2018-09-03T12:25:51.169Z,9.33
2018-09-03T12:28:21.753Z,9.40
2018-09-03T12:30:52.353Z,8.93
2018-09-03T12:33:22.938Z,9.33
2018-09-03T12:35:53.461Z,9.18
2018-09-03T12:38:24.063Z,8.35
2018-09-03T12:40:54.667Z,9.10
2018-09-03T12:43:25.346Z,8.90
2018-09-03T12:46:01.925Z,9.73
2018-09-03T12:48:32.360Z,9.65
2018-09-03T12:51:03.676Z,10.15
2018-09-03T12:53:34.498Z,9.65
2018-09-03T12:56:04.987Z,10.23
2018-09-03T12:58:34.949Z,10.90
2018-09-03T13:01:05.466Z,10.08
2018-09-03T13:03:36.824Z,8.93
2018-09-03T13:06:07.402Z,9.98
2018-09-03T13:08:37.926Z,9.20
2018-09-03T13:11:08.773Z,9.77
2018-09-03T13:13:39.361Z,8.88
2018-09-03T13:16:09.992Z,9.10
2018-09-03T13:18:40.562Z,9.45
2018-09-03T13:21:11.013Z,9.23
2018-09-03T13:23:41.053Z,9.25
2018-09-03T13:26:11.541Z,9.53
2018-09-03T13:28:42.131Z,8.90
2018-09-03T13:31:12.538Z,8.95
2018-09-03T13:33:43.143Z,8.95
2018-09-03T13:36:13.635Z,9.13
2018-09-03T13:38:44.269Z,8.90
2018-09-03T13:41:14.872Z,9.60
2018-09-03T13:43:45.397Z,9.60
2018-09-03T13:46:15.926Z,8.87
2018-09-03T13:48:46.369Z,9.00
2018-09-03T13:51:16.827Z,8.30
2018-09-03T13:53:47.309Z,8.97
2018-09-03T13:56:17.914Z,8.73
2018-09-03T13:58:48.731Z,8.60
2018-09-03T14:01:19.244Z,8.73
2018-09-03T14:03:49.844Z,9.13
2018-09-03T14:06:20.457Z,9.53
2018-09-03T14:08:50.994Z,9.33
2018-09-03T14:11:21.501Z,8.38
2018-09-03T14:13:52.165Z,8.50
2018-09-03T14:16:22.725Z,8.33
2018-09-03T14:18:53.230Z,8.33
2018-09-03T14:21:23.767Z,8.25
2018-09-03T14:23:54.305Z,8.63
2018-09-03T14:26:24.754Z,8.80
2018-09-03T14:28:54.635Z,9.13
2018-09-03T14:31:25.034Z,8.98
2018-09-03T14:33:55.549Z,9.25
2018-09-03T14:36:25.937Z,8.95
2018-09-03T14:38:56.549Z,8.50
2018-09-03T14:41:26.549Z,7.97
2018-09-03T14:43:57.090Z,8.70
2018-09-03T14:46:27.670Z,8.73
2018-09-03T14:48:58.039Z,8.10
2018-09-03T14:51:28.507Z,8.25
2018-09-03T14:53:58.908Z,8.85
2018-09-03T14:56:29.770Z,8.65
2018-09-03T14:59:00.361Z,9.05
2018-09-03T15:01:30.843Z,9.40
2018-09-03T15:04:01.365Z,8.45
2018-09-03T15:06:31.093Z,8.65
2018-09-03T15:09:01.531Z,9.00
2018-09-03T15:11:32.024Z,9.40
2018-09-03T15:14:02.434Z,10.20
2018-09-03T15:16:33.771Z,9.20
2018-09-03T15:19:05.478Z,7.85
2018-09-03T15:21:36.262Z,9.73
2018-09-03T15:24:06.946Z,9.47
2018-09-03T15:26:37.546Z,9.17
2018-09-03T15:29:07.350Z,8.20
2018-09-03T15:31:37.097Z,9.17
2018-09-03T15:34:07.661Z,8.93
2018-09-03T15:36:38.268Z,8.27
2018-09-03T15:39:11.522Z,9.33
2018-09-03T15:41:42.225Z,8.90
2018-09-03T15:44:12.758Z,8.87
2018-09-03T15:46:43.301Z,8.43
2018-09-03T15:49:13.341Z,8.70
2018-09-03T15:51:43.770Z,8.93
2018-09-03T15:54:14.227Z,9.20
2018-09-03T15:56:45.646Z,9.60
2018-09-03T15:59:16.135Z,8.57
2018-09-03T16:01:46.697Z,9.10
2018-09-03T16:04:17.467Z,9.20
2018-09-03T16:06:48.094Z,9.20
2018-09-03T16:09:18.641Z,8.90
2018-09-03T16:11:49.425Z,8.93
2018-09-03T16:14:19.258Z,9.43
2018-09-03T16:16:49.597Z,9.23
2018-09-03T16:19:20.150Z,9.90
2018-09-03T16:21:50.502Z,10.23
2018-09-03T16:24:20.938Z,9.73
2018-09-03T16:26:50.803Z,10.27
2018-09-03T16:29:21.120Z,11.17
2018-09-03T16:31:51.713Z,39.83
2018-09-03T16:34:22.294Z,34.30
2018-09-03T16:36:52.686Z,12.47
2018-09-03T16:39:24.439Z,10.13
2018-09-03T16:41:55.013Z,11.13
2018-09-03T16:44:25.885Z,10.83
2018-09-03T16:46:56.425Z,10.40
2018-09-03T16:49:26.866Z,10.60
2018-09-03T16:51:57.382Z,11.10
2018-09-03T16:54:27.963Z,11.60
2018-09-03T16:56:58.430Z,10.63
2018-09-03T16:59:28.878Z,11.23
2018-09-03T17:01:59.181Z,11.87
2018-09-03T17:04:29.902Z,11.70
2018-09-03T17:07:00.471Z,11.43
2018-09-03T17:09:31.122Z,11.90
2018-09-03T17:12:01.614Z,13.03
2018-09-03T17:14:32.342Z,13.83
2018-09-03T17:17:03.145Z,14.03
2018-09-03T17:19:33.653Z,14.33
2018-09-03T17:22:04.148Z,15.33
2018-09-03T17:24:34.748Z,16.30
2018-09-03T17:27:04.677Z,17.77
2018-09-03T17:29:35.084Z,16.43
2018-09-03T17:32:05.639Z,20.00
2018-09-03T17:34:36.114Z,21.87
2018-09-03T17:37:06.777Z,21.63
2018-09-03T17:39:36.660Z,17.70
2018-09-03T17:42:07.137Z,15.93
2018-09-03T17:44:37.716Z,13.17
2018-09-03T17:47:08.107Z,17.40
2018-09-03T17:49:38.590Z,15.57
2018-09-03T17:52:09.162Z,14.03
2018-09-03T17:54:40.614Z,14.07
2018-09-03T17:57:11.040Z,16.53
2018-09-03T17:59:41.481Z,17.17
2018-09-03T18:02:12.148Z,17.53
2018-09-03T18:04:42.659Z,17.57
2018-09-03T18:07:13.565Z,16.00
2018-09-03T18:09:44.002Z,14.00
2018-09-03T18:12:17.750Z,13.60
2018-09-03T18:15:04.832Z,13.83
2018-09-03T18:17:36.161Z,13.37
2018-09-03T18:20:06.893Z,14.00
2018-09-03T18:22:37.342Z,14.83
2018-09-03T18:25:07.964Z,14.00
2018-09-03T18:27:38.571Z,13.40
2018-09-03T18:30:09.314Z,14.07
2018-09-03T18:32:40.130Z,13.57
2018-09-03T18:35:10.852Z,13.80
2018-09-03T18:37:41.390Z,13.50
2018-09-03T18:40:12.077Z,13.93
2018-09-03T18:42:42.594Z,14.20
2018-09-03T18:45:13.385Z,14.93
2018-09-03T18:47:44.025Z,16.70
2018-09-03T18:50:15.973Z,16.33
2018-09-03T18:52:48.672Z,16.63
2018-09-03T18:55:19.138Z,15.60
2018-09-03T18:57:49.870Z,14.47
2018-09-03T19:00:20.423Z,12.90
2018-09-03T19:02:50.899Z,13.97
2018-09-03T19:05:21.598Z,13.60
2018-09-03T19:07:52.191Z,12.53
2018-09-03T19:10:23.174Z,13.37
2018-09-03T19:12:53.585Z,13.63
2018-09-03T19:15:24.586Z,13.70
2018-09-03T19:17:55.161Z,13.90
2018-09-03T19:20:24.960Z,13.83
2018-09-03T19:22:56.473Z,12.97
2018-09-03T19:25:26.902Z,13.20
2018-09-03T19:27:57.527Z,12.50
2018-09-03T19:30:28.097Z,12.70
2018-09-03T19:32:58.592Z,12.13
2018-09-03T19:35:29.170Z,12.50
2018-09-03T19:37:59.192Z,12.13
2018-09-03T19:40:29.751Z,12.23
2018-09-03T19:43:00.407Z,12.17
2018-09-03T19:45:31.120Z,11.93
2018-09-03T19:48:01.665Z,12.77
2018-09-03T19:50:32.840Z,12.10
2018-09-03T19:53:03.420Z,12.00
2018-09-03T19:55:34.109Z,11.80
2018-09-03T19:58:03.988Z,12.13
2018-09-03T20:00:34.422Z,11.73
2018-09-03T20:03:05.051Z,12.60
2018-09-03T20:05:35.522Z,12.53
2018-09-03T20:08:06.857Z,12.77
2018-09-03T20:10:37.833Z,12.20
2018-09-03T20:13:08.381Z,11.80
2018-09-03T20:15:38.977Z,12.03
2018-09-03T20:19:12.400Z,12.17
2018-09-03T20:21:43.062Z,12.10
2018-09-03T20:24:13.608Z,11.37
2018-09-03T20:26:44.397Z,11.10
2018-09-03T20:29:14.971Z,11.47
2018-09-03T20:31:45.569Z,11.47
2018-09-03T20:34:16.622Z,11.13
2018-09-03T20:36:47.248Z,11.30
2018-09-03T20:39:17.879Z,11.20
2018-09-03T20:41:48.503Z,11.17
2018-09-03T20:44:19.207Z,11.23
2018-09-03T20:46:49.894Z,11.50
2018-09-03T20:49:20.417Z,11.00
2018-09-03T20:51:50.961Z,11.33
2018-09-03T20:54:21.425Z,11.77
2018-09-03T20:56:52.127Z,11.17
2018-09-03T20:59:21.984Z,11.63
2018-09-03T21:01:52.494Z,11.60
2018-09-03T21:04:23.003Z,12.23
2018-09-03T21:06:53.756Z,11.43
2018-09-03T21:09:24.672Z,12.07
2018-09-03T21:11:54.949Z,11.43
2018-09-03T21:14:25.587Z,11.47
2018-09-03T21:16:56.154Z,11.70
2018-09-03T21:19:26.098Z,11.43
2018-09-03T21:21:56.533Z,12.17
2018-09-03T21:24:27.073Z,11.40
2018-09-03T21:26:57.683Z,12.30
2018-09-03T21:29:28.217Z,11.97
2018-09-03T21:31:58.884Z,12.00
2018-09-03T21:34:29.369Z,12.50
2018-09-03T21:36:59.969Z,12.17
2018-09-03T21:39:30.523Z,12.13
2018-09-03T21:42:01.213Z,11.70
2018-09-03T21:44:31.946Z,11.87
2018-09-03T21:47:03.020Z,11.60
2018-09-03T21:49:33.727Z,12.23
2018-09-03T21:52:04.235Z,12.03
2018-09-03T21:54:34.870Z,11.37
2018-09-03T21:57:05.528Z,12.17
2018-09-03T21:59:36.905Z,11.70
2018-09-03T22:02:10.837Z,11.67
2018-09-03T22:04:42.818Z,11.57
2018-09-03T22:07:13.458Z,12.03
2018-09-03T22:09:44.091Z,11.73
2018-09-03T22:12:14.385Z,11.70
2018-09-03T22:14:44.812Z,12.23
2018-09-03T22:17:15.444Z,11.63
2018-09-03T22:19:45.975Z,12.50
2018-09-03T22:22:16.532Z,11.33
2018-09-03T22:24:47.123Z,11.53
2018-09-03T22:27:17.442Z,11.70
2018-09-03T22:29:47.694Z,12.23
2018-09-03T22:32:17.978Z,11.40
2018-09-03T22:34:48.550Z,10.87
2018-09-03T22:37:18.425Z,11.70
2018-09-03T22:39:48.926Z,11.67
2018-09-03T22:42:19.582Z,11.80
2018-09-03T22:44:50.235Z,10.90
2018-09-03T22:47:20.914Z,11.57
2018-09-03T22:49:51.526Z,11.40
2018-09-03T22:52:22.031Z,11.33
2018-09-03T22:54:52.646Z,11.00
2018-09-03T22:57:23.597Z,10.93
2018-09-03T22:59:54.123Z,10.77
2018-09-03T23:02:24.794Z,11.13
2018-09-03T23:04:55.406Z,11.27
2018-09-03T23:07:26.049Z,11.60
2018-09-03T23:09:56.689Z,11.03
2018-09-03T23:12:27.512Z,11.43
2018-09-03T23:14:58.130Z,11.10
2018-09-03T23:17:28.738Z,10.93
2018-09-03T23:19:59.314Z,10.20
2018-09-03T23:22:29.908Z,11.30
2018-09-03T23:25:00.531Z,10.80
2018-09-03T23:27:31.105Z,11.37
2018-09-03T23:30:01.818Z,10.67
2018-09-03T23:32:32.362Z,10.67
2018-09-03T23:35:02.857Z,11.13
2018-09-03T23:37:33.445Z,10.67
2018-09-03T23:40:03.258Z,10.33
2018-09-03T23:42:33.864Z,11.27
2018-09-03T23:45:04.402Z,10.53
2018-09-03T23:47:34.901Z,10.83
2018-09-03T23:50:05.548Z,10.80
2018-09-03T23:52:36.162Z,10.70
2018-09-03T23:55:07.106Z,10.63
2018-09-03T23:57:37.441Z,10.90
